Belle Chasse — WDG2912 — position and weather

sailwx.info

Track history (hours):
 
Tides and Currents Weather Stations Pressure Air Temp Water Temp Dewpoint Dewpoint Depression Visibility Wind Speed Wind Dir Waves Ship Positions

Belle Chasse

Owner: Higman Barge Lines, Inc, Orange, TX. More information available from US FCC via Universal Licensing System and Coast Guard Vessel Documentation Center.

Last reported at 2016-Jul-20 16:18 UTC. Time now 2016-Jul-28 16:28 UTC.
Position N 29°22' W 094°49'.
Warning: this ship's position is 8 days out of date.

Length 26 m; draft 3 m.

Type: Towing. MMSI: 367520550.

Date/timePositionNaut miles runAvg speedWind from/ knotsBaromVisibWave heightAir tempDewpointWater temp
2016-Jul-20 16:18N 29°22' W 094°49'  
2016-Jul-16 00:09N 29°25' W 094°44'48 1.3
2016-Jul-14 11:08N 29°51' W 093°57'4 6.5
2016-Jul-14 10:33N 29°54' W 093°54'5 5.4
2016-Jul-14 09:33N 29°59' W 093°52'6 6.0
2016-Jul-14 08:33N 30°01' W 093°59'3 0.6
2016-Jul-14 03:29N 30°02' W 094°02'0 0.0
2016-Jul-14 02:14N 30°02' W 094°02'0 0.0
2016-Jul-13 11:13N 30°02' W 094°02'3 4.1
2016-Jul-13 10:31N 30°01' W 093°59'6 6.1
2016-Jul-13 09:32N 29°59' W 093°52'8 6.3
2016-Jul-13 08:15N 29°52' W 093°56'4 4.4
2016-Jul-13 07:20N 29°49' W 093°60'3 4.0
2016-Jul-13 06:27N 29°46' W 094°02'  
Track history (hours):
 
Tides and Currents Weather Stations Pressure Air Temp Water Temp Dewpoint Dewpoint Depression Visibility Wind Speed Wind Dir Waves Ship Positions

Belle Chasse

Owner: Higman Barge Lines, Inc, Orange, TX. More information available from US FCC via Universal Licensing System and Coast Guard Vessel Documentation Center.

Last reported at 2016-Jul-20 16:18 UTC. Time now 2016-Jul-28 16:28 UTC.
Position N 29°22' W 094°49'.
Warning: this ship's position is 8 days out of date.

Length 26 m; draft 3 m.

Type: Towing. MMSI: 367520550.

Date/timePositionNaut miles runAvg speedWind from/ knotsBaromVisibWave heightAir tempDewpointWater temp
2016-Jul-20 16:18N 29°22' W 094°49'  
2016-Jul-16 00:09N 29°25' W 094°44'48 1.3
2016-Jul-14 11:08N 29°51' W 093°57'4 6.5
2016-Jul-14 10:33N 29°54' W 093°54'5 5.4
2016-Jul-14 09:33N 29°59' W 093°52'6 6.0
2016-Jul-14 08:33N 30°01' W 093°59'3 0.6
2016-Jul-14 03:29N 30°02' W 094°02'0 0.0
2016-Jul-14 02:14N 30°02' W 094°02'0 0.0
2016-Jul-13 11:13N 30°02' W 094°02'3 4.1
2016-Jul-13 10:31N 30°01' W 093°59'6 6.1
2016-Jul-13 09:32N 29°59' W 093°52'8 6.3
2016-Jul-13 08:15N 29°52' W 093°56'4 4.4
2016-Jul-13 07:20N 29°49' W 093°60'3 4.0
2016-Jul-13 06:27N 29°46' W 094°02'  

Dump ship's entire track history